sensor_id;sensor_type;location;lat;lon;timestamp;pressure;altitude;pressure_sealevel;temperature;humidity
31162;BME280;17796;49.296;-117.656;2024-01-16T00:00:05;98300;;;-9.79234;66.37102
31162;BME280;17796;49.296;-117.656;2024-01-16T00:15:10;98300;;;-10.4166;71.80936
31162;BME280;17796;49.296;-117.656;2024-01-16T00:30:14;98300;;;-10.16099;69.24643
31162;BME280;17796;49.296;-117.656;2024-01-16T00:45:19;98300;;;-10.51186;75.41628
31162;BME280;17796;49.296;-117.656;2024-01-16T01:00:23;98300;;;-10.66331;75.7426
31162;BME280;17796;49.296;-117.656;2024-01-16T01:15:27;98300;;;-10.6268;76.03382
31162;BME280;17796;49.296;-117.656;2024-01-16T01:30:31;98300;;;-10.95321;77.90682
31162;BME280;17796;49.296;-117.656;2024-01-16T01:45:35;98300;;;-11.06212;80.31994
31162;BME280;17796;49.296;-117.656;2024-01-16T02:00:39;98300;;;-11.47522;80.97051
31162;BME280;17796;49.296;-117.656;2024-01-16T02:15:44;98300;;;-11.57048;80.76894
31162;BME280;17796;49.296;-117.656;2024-01-16T02:30:47;98200;;;-11.20787;78.11457
31162;BME280;17796;49.296;-117.656;2024-01-16T02:45:51;98200;;;-11.44855;80.56998
31162;BME280;17796;49.296;-117.656;2024-01-16T03:00:55;98200;;;-11.66002;81.29498
31162;BME280;17796;49.296;-117.656;2024-01-16T03:15:59;98200;;;-11.86513;81.20321
31162;BME280;17796;49.296;-117.656;2024-01-16T03:31:03;98200;;;-12.3303;85.52914
31162;BME280;17796;49.296;-117.656;2024-01-16T03:46:10;98200;;;-11.30947;80.10186
31162;BME280;17796;49.296;-117.656;2024-01-16T04:01:14;98200;;;-11.26661;75.17842
31162;BME280;17796;49.296;-117.656;2024-01-16T04:16:17;98200;;;-11.93435;80.08723
31162;BME280;17796;49.296;-117.656;2024-01-16T04:31:21;98200;;;-11.8156;83.37712
31162;BME280;17796;49.296;-117.656;2024-01-16T04:46:25;98200;;;-11.25549;80.99475
31162;BME280;17796;49.296;-117.656;2024-01-16T05:01:30;98200;;;-11.77782;84.00691
31162;BME280;17796;49.296;-117.656;2024-01-16T05:16:34;98200;;;-11.41108;80.27673
31162;BME280;17796;49.296;-117.656;2024-01-16T05:31:42;98200;;;-11.41267;77.98181
31162;BME280;17796;49.296;-117.656;2024-01-16T05:46:46;98200;;;-12.72307;85.81421
31162;BME280;17796;49.296;-117.656;2024-01-16T06:01:50;98200;;;-11.89117;87.19733
31162;BME280;17796;49.296;-117.656;2024-01-16T06:16:54;98200;;;-12.3103;86.66878
31162;BME280;17796;49.296;-117.656;2024-01-16T06:31:59;98200;;;-11.5057;83.1002
31162;BME280;17796;49.296;-117.656;2024-01-16T06:47:03;98200;;;-11.39457;82.74691
31162;BME280;17796;49.296;-117.656;2024-01-16T07:02:07;98200;;;-11.59239;84.09237
31162;BME280;17796;49.296;-117.656;2024-01-16T07:17:11;98100;;;-12.18519;92.25533
31162;BME280;17796;49.296;-117.656;2024-01-16T07:32:14;98100;;;-12.07946;92.95125
31162;BME280;17796;49.296;-117.656;2024-01-16T07:47:18;98100;;;-11.34535;91.07413
31162;BME280;17796;49.296;-117.656;2024-01-16T08:02:21;98100;;;-11.55365;91.33186
31162;BME280;17796;49.296;-117.656;2024-01-16T08:17:29;98100;;;-11.25835;84.74715
31162;BME280;17796;49.296;-117.656;2024-01-16T08:32:32;98000;;;-11.37869;87.23508
31162;BME280;17796;49.296;-117.656;2024-01-16T08:47:36;98100;;;-11.63716;91.7543
31162;BME280;17796;49.296;-117.656;2024-01-16T09:02:40;98000;;;-10.96306;83.29026
31162;BME280;17796;49.296;-117.656;2024-01-16T09:17:44;98000;;;-11.69209;84.49932
31162;BME280;17796;49.296;-117.656;2024-01-16T09:32:47;98000;;;-11.65335;83.41189
31162;BME280;17796;49.296;-117.656;2024-01-16T09:47:51;98000;;;-11.42886;83.20987
31162;BME280;17796;49.296;-117.656;2024-01-16T10:02:55;98000;;;-11.84513;84.40695
31162;BME280;17796;49.296;-117.656;2024-01-16T10:18:01;98000;;;-11.53936;84.35843
31162;BME280;17796;49.296;-117.656;2024-01-16T10:33:13;98000;;;-12.69576;92.55417
31162;BME280;17796;49.296;-117.656;2024-01-16T10:48:18;98000;;;-12.93485;94.68669
31162;BME280;17796;49.296;-117.656;2024-01-16T11:03:23;98000;;;-11.77528;86.87301
31162;BME280;17796;49.296;-117.656;2024-01-16T11:18:31;98000;;;-11.65938;84.58802
31162;BME280;17796;49.296;-117.656;2024-01-16T11:33:43;97900;;;-11.47935;84.28069
31162;BME280;17796;49.296;-117.656;2024-01-16T11:48:49;97900;;;-11.3552;82.92654
31162;BME280;17796;49.296;-117.656;2024-01-16T12:04:04;97900;;;-11.75305;86.57394
31162;BME280;17796;49.296;-117.656;2024-01-16T12:19:09;97900;;;-12.07279;88.64501
31162;BME280;17796;49.296;-117.656;2024-01-16T12:34:13;97800;;;-12.02453;88.53
31162;BME280;17796;49.296;-117.656;2024-01-16T12:49:24;97800;;;-13.01741;97.90692
31162;BME280;17796;49.296;-117.656;2024-01-16T13:04:28;97800;;;-11.82163;86.396
31162;BME280;17796;49.296;-117.656;2024-01-16T13:19:31;97700;;;-12.08867;89.859
31162;BME280;17796;49.296;-117.656;2024-01-16T13:34:35;97700;;;-13.00883;93.31694
31162;BME280;17796;49.296;-117.656;2024-01-16T13:49:38;97700;;;-12.31379;88.47119
31162;BME280;17796;49.296;-117.656;2024-01-16T14:04:42;97700;;;-12.14487;90.22683
31162;BME280;17796;49.296;-117.656;2024-01-16T14:19:45;97700;;;-12.865;92.30397
31162;BME280;17796;49.296;-117.656;2024-01-16T14:34:49;97700;;;-12.27473;88.60837
31162;BME280;17796;49.296;-117.656;2024-01-16T14:49:52;97600;;;-11.79433;87.43183
31162;BME280;17796;49.296;-117.656;2024-01-16T15:04:56;97600;;;-13.22189;97.78648
31162;BME280;17796;49.296;-117.656;2024-01-16T15:20:00;97600;;;-11.81465;87.28104
31162;BME280;17796;49.296;-117.656;2024-01-16T15:35:05;97600;;;-12.43508;93.68258
31162;BME280;17796;49.296;-117.656;2024-01-16T15:50:09;97600;;;-12.39412;94.65376
31162;BME280;17796;49.296;-117.656;2024-01-16T16:05:13;97500;;;-12.84341;100.0
31162;BME280;17796;49.296;-117.656;2024-01-16T16:20:17;97500;;;-11.80735;94.52137
31162;BME280;17796;49.296;-117.656;2024-01-16T16:35:21;97500;;;-11.00052;87.12857
31162;BME280;17796;49.296;-117.656;2024-01-16T16:50:25;97500;;;-10.52964;83.10104
31162;BME280;17796;49.296;-117.656;2024-01-16T17:05:28;97500;;;-10.53916;82.48314
31162;BME280;17796;49.296;-117.656;2024-01-16T17:20:32;97500;;;-10.15654;84.58037
31162;BME280;17796;49.296;-117.656;2024-01-16T17:35:35;97500;;;-10.44581;82.69051
31162;BME280;17796;49.296;-117.656;2024-01-16T17:50:39;97400;;;-9.55515;77.46819
31162;BME280;17796;49.296;-117.656;2024-01-16T18:05:45;97400;;;-8.165;59.50388
31162;BME280;17796;49.296;-117.656;2024-01-16T18:20:49;97400;;;-8.29201;60.63231
31162;BME280;17796;49.296;-117.656;2024-01-16T18:35:53;97400;;;-8.07546;62.53466
31162;BME280;17796;49.296;-117.656;2024-01-16T18:50:57;97300;;;-7.17747;57.90813
31162;BME280;17796;49.296;-117.656;2024-01-16T19:06:05;97300;;;-6.38966;56.60765
31162;BME280;17796;49.296;-117.656;2024-01-16T19:21:08;97200;;;-6.70338;62.0773
31162;BME280;17796;49.296;-117.656;2024-01-16T19:36:13;97200;;;-6.8974;54.03531
31162;BME280;17796;49.296;-117.656;2024-01-16T19:51:17;97100;;;-6.96948;56.84917
31162;BME280;17796;49.296;-117.656;2024-01-16T20:06:20;97100;;;-4.57299;49.18694
31162;BME280;17796;49.296;-117.656;2024-01-16T20:21:24;97100;;;-6.32932;53.37734
31162;BME280;17796;49.296;-117.656;2024-01-16T20:36:28;97000;;;-6.7091;55.43424
31162;BME280;17796;49.296;-117.656;2024-01-16T20:51:31;97000;;;-5.99082;60.46085
31162;BME280;17796;49.296;-117.656;2024-01-16T21:06:35;96900;;;-5.80602;60.76396
31162;BME280;17796;49.296;-117.656;2024-01-16T21:21:42;96900;;;-5.41195;57.0789
31162;BME280;17796;49.296;-117.656;2024-01-16T21:36:45;96900;;;-5.34018;55.81272
31162;BME280;17796;49.296;-117.656;2024-01-16T21:51:50;96800;;;-4.80893;55.95717
31162;BME280;17796;49.296;-117.656;2024-01-16T22:06:53;96800;;;-5.92954;61.37911
31162;BME280;17796;49.296;-117.656;2024-01-16T22:21:57;96800;;;-5.69932;59.86044
31162;BME280;17796;49.296;-117.656;2024-01-16T22:37:01;96800;;;-7.19398;66.91872
31162;BME280;17796;49.296;-117.656;2024-01-16T22:52:05;96800;;;-6.57351;67.35845
31162;BME280;17796;49.296;-117.656;2024-01-16T23:07:09;96700;;;-6.56208;74.65361
31162;BME280;17796;49.296;-117.656;2024-01-16T23:22:12;96700;;;-6.30964;69.42819
31162;BME280;17796;49.296;-117.656;2024-01-16T23:37:15;96700;;;-6.73355;67.52973
31162;BME280;17796;49.296;-117.656;2024-01-16T23:52:19;96600;;;-6.52524;69.066
